createdAt,value
2023-03-06T00:00:30.178Z,6.65
2023-03-06T00:01:30.185Z,6.72
2023-03-06T00:02:30.153Z,6.76
2023-03-06T00:03:30.230Z,6.83
2023-03-06T00:04:30.137Z,6.88
2023-03-06T00:05:30.183Z,6.79
2023-03-06T00:06:30.119Z,6.87
2023-03-06T00:07:30.103Z,6.84
2023-03-06T00:08:30.096Z,6.76
2023-03-06T00:09:30.086Z,6.77
2023-03-06T00:10:30.075Z,6.72
2023-03-06T00:11:30.062Z,6.66
2023-03-06T00:12:30.052Z,6.61
2023-03-06T00:13:30.242Z,6.62
2023-03-06T00:14:30.181Z,6.65
2023-03-06T00:15:30.031Z,6.61
2023-03-06T00:16:30.075Z,6.69
2023-03-06T00:17:30.025Z,6.54
2023-03-06T00:18:30.005Z,6.52
2023-03-06T00:19:29.978Z,6.48
2023-03-06T00:20:29.971Z,6.52
2023-03-06T00:21:29.958Z,6.51
2023-03-06T00:22:29.958Z,6.37
2023-03-06T00:23:29.936Z,6.29
2023-03-06T00:24:29.933Z,6.28
2023-03-06T00:25:29.930Z,6.26
2023-03-06T00:26:29.914Z,6.31
2023-03-06T00:27:29.897Z,6.16
2023-03-06T00:28:29.888Z,6.08
2023-03-06T00:29:29.875Z,6.05
2023-03-06T00:30:29.871Z,6.15
2023-03-06T00:31:29.893Z,6.03
2023-03-06T00:32:29.889Z,6.16
2023-03-06T00:33:29.862Z,6.18
2023-03-06T00:34:29.823Z,6.18
2023-03-06T00:35:29.841Z,6.13
2023-03-06T00:36:29.809Z,6.10
2023-03-06T00:37:29.790Z,6.04
2023-03-06T00:38:29.777Z,6.13
2023-03-06T00:39:29.770Z,6.05
2023-03-06T00:40:29.767Z,5.98
2023-03-06T00:41:29.751Z,6.05
2023-03-06T00:42:29.739Z,6.04
2023-03-06T00:43:29.725Z,5.95
2023-03-06T00:44:29.719Z,6.08
2023-03-06T00:45:29.742Z,6.11
2023-03-06T00:46:29.702Z,6.15
2023-03-06T00:47:29.686Z,6.10
2023-03-06T00:48:29.672Z,6.13
2023-03-06T00:49:29.690Z,6.10
2023-03-06T00:50:29.655Z,6.11
2023-03-06T00:51:29.650Z,6.16
2023-03-06T00:52:29.633Z,6.15
2023-03-06T00:53:29.623Z,6.11
2023-03-06T00:54:29.611Z,6.15
2023-03-06T00:55:29.604Z,6.16
2023-03-06T00:56:29.592Z,6.16
2023-03-06T00:57:29.580Z,6.04
2023-03-06T00:58:29.571Z,6.01
2023-03-06T00:59:29.559Z,5.95
2023-03-06T01:00:29.550Z,5.98
2023-03-06T01:01:29.551Z,5.87
2023-03-06T01:02:29.571Z,5.92
2023-03-06T01:03:29.515Z,5.90
2023-03-06T01:04:29.509Z,5.89
2023-03-06T01:05:29.767Z,5.90
2023-03-06T01:06:29.482Z,5.82
2023-03-06T01:07:29.470Z,5.82
2023-03-06T01:08:29.461Z,5.94
2023-03-06T01:09:29.458Z,5.83
2023-03-06T01:10:29.441Z,5.85
2023-03-06T01:11:29.432Z,5.89
2023-03-06T01:12:29.420Z,5.82
2023-03-06T01:13:29.405Z,5.77
2023-03-06T01:14:29.399Z,5.82
2023-03-06T01:15:29.389Z,5.80
2023-03-06T01:16:29.469Z,5.80
2023-03-06T01:17:29.368Z,5.79
2023-03-06T01:18:29.357Z,5.86
2023-03-06T01:19:29.342Z,5.76
2023-03-06T01:20:29.333Z,5.83
2023-03-06T01:21:29.359Z,5.92
2023-03-06T01:22:29.313Z,5.97
2023-03-06T01:23:29.302Z,6.00
2023-03-06T01:24:29.288Z,6.01
2023-03-06T01:25:29.279Z,6.00
2023-03-06T01:26:29.273Z,6.03
2023-03-06T01:27:29.259Z,5.94
2023-03-06T01:28:29.252Z,5.97
2023-03-06T01:29:29.236Z,6.15
2023-03-06T01:30:29.229Z,6.05
2023-03-06T01:31:29.327Z,6.01
2023-03-06T01:32:29.228Z,6.11
2023-03-06T01:33:29.195Z,6.10
2023-03-06T01:34:29.187Z,6.16
2023-03-06T01:35:29.196Z,6.13
2023-03-06T01:36:29.164Z,6.10
2023-03-06T01:37:29.176Z,6.13
2023-03-06T01:38:29.141Z,6.18
2023-03-06T01:39:29.132Z,6.22
2023-03-06T01:40:29.126Z,6.29
2023-03-06T01:41:29.117Z,6.36
2023-03-06T01:42:30.805Z,6.44
2023-03-06T01:43:29.137Z,6.43
2023-03-06T01:44:29.081Z,6.55
2023-03-06T01:45:29.156Z,6.46
2023-03-06T01:46:29.066Z,6.48
2023-03-06T01:47:29.056Z,6.56
2023-03-06T01:48:29.041Z,6.55
2023-03-06T01:49:29.032Z,6.55
2023-03-06T01:50:29.021Z,6.62
2023-03-06T01:51:29.012Z,6.48
2023-03-06T01:52:28.999Z,6.52
2023-03-06T01:53:29.016Z,6.66
2023-03-06T01:54:28.982Z,6.74
2023-03-06T01:55:28.968Z,6.70
2023-03-06T01:56:28.964Z,6.76
2023-03-06T01:57:28.964Z,6.66
2023-03-06T01:58:28.937Z,6.65
2023-03-06T01:59:28.936Z,6.59
2023-03-06T02:00:28.920Z,6.59
2023-03-06T02:01:28.982Z,6.58
2023-03-06T02:02:28.930Z,6.54
2023-03-06T02:03:28.890Z,6.51
2023-03-06T02:04:28.883Z,6.62
2023-03-06T02:05:28.866Z,6.51
2023-03-06T02:06:28.856Z,6.51
2023-03-06T02:07:28.845Z,6.51
2023-03-06T02:08:28.841Z,6.47
2023-03-06T02:09:28.852Z,6.61
2023-03-06T02:10:28.812Z,6.56
2023-03-06T02:11:28.878Z,6.65
2023-03-06T02:12:28.797Z,6.72
2023-03-06T02:13:28.783Z,6.76
2023-03-06T02:14:28.776Z,6.79
2023-03-06T02:15:28.768Z,6.76
2023-03-06T02:16:28.780Z,6.91
2023-03-06T02:17:28.746Z,6.88
2023-03-06T02:18:28.738Z,6.95
2023-03-06T02:19:28.727Z,7.05
2023-03-06T02:20:28.717Z,7.02
2023-03-06T02:21:28.710Z,7.03
2023-03-06T02:22:28.696Z,7.03
2023-03-06T02:23:28.685Z,6.99
2023-03-06T02:24:28.674Z,6.99
2023-03-06T02:25:28.689Z,6.96
2023-03-06T02:26:28.655Z,6.98
2023-03-06T02:27:28.691Z,6.91
2023-03-06T02:28:28.632Z,6.83
2023-03-06T02:29:28.640Z,6.88
2023-03-06T02:30:28.607Z,6.95
2023-03-06T02:31:28.605Z,6.91
2023-03-06T02:32:28.637Z,6.95
2023-03-06T02:33:28.595Z,7.02
2023-03-06T02:34:28.580Z,7.03
2023-03-06T02:35:28.634Z,6.90
2023-03-06T02:36:28.546Z,6.98
2023-03-06T02:37:28.545Z,6.96
2023-03-06T02:38:28.527Z,6.92
2023-03-06T02:39:28.518Z,6.84
2023-03-06T02:40:28.511Z,6.83
2023-03-06T02:41:28.517Z,6.80
2023-03-06T02:42:28.492Z,6.80
2023-03-06T02:43:28.475Z,6.77
2023-03-06T02:44:28.462Z,6.66
2023-03-06T02:45:28.454Z,6.66
2023-03-06T02:46:28.500Z,6.64
2023-03-06T02:47:28.433Z,6.56
2023-03-06T02:48:28.419Z,6.58
2023-03-06T02:49:28.414Z,6.47
2023-03-06T02:50:28.402Z,6.44
2023-03-06T02:51:28.400Z,6.37
2023-03-06T02:52:28.373Z,6.22
2023-03-06T02:53:28.369Z,6.40
2023-03-06T02:54:28.354Z,6.31
2023-03-06T02:55:28.345Z,6.19
2023-03-06T02:56:28.343Z,6.31
2023-03-06T02:57:28.344Z,6.19
2023-03-06T02:58:28.315Z,6.31
2023-03-06T02:59:28.302Z,6.25
2023-03-06T03:00:28.296Z,6.21
2023-03-06T03:01:28.327Z,6.22
2023-03-06T03:02:28.274Z,6.22
2023-03-06T03:03:28.259Z,6.07
2023-03-06T03:04:28.340Z,6.10
2023-03-06T03:05:28.237Z,6.07
2023-03-06T03:06:28.230Z,5.92
2023-03-06T03:07:28.218Z,5.90
2023-03-06T03:08:28.209Z,5.85
2023-03-06T03:09:28.200Z,5.79
2023-03-06T03:10:28.184Z,5.76
2023-03-06T03:11:28.179Z,5.71
2023-03-06T03:12:28.168Z,5.59
2023-03-06T03:13:28.178Z,5.59
2023-03-06T03:14:28.298Z,5.57
2023-03-06T03:15:28.137Z,5.49
2023-03-06T03:16:28.140Z,5.54
2023-03-06T03:17:28.113Z,5.59
2023-03-06T03:18:28.100Z,5.61
2023-03-06T03:19:28.250Z,5.50
2023-03-06T03:20:28.089Z,5.41
2023-03-06T03:21:28.070Z,5.32
2023-03-06T03:22:28.067Z,5.32
2023-03-06T03:23:28.054Z,5.27
2023-03-06T03:24:28.087Z,5.16
2023-03-06T03:25:28.034Z,5.16
2023-03-06T03:26:28.021Z,5.12
2023-03-06T03:27:28.018Z,5.10
2023-03-06T03:28:28.003Z,5.03
2023-03-06T03:29:28.015Z,4.95
2023-03-06T03:30:27.978Z,5.02
2023-03-06T03:31:28.160Z,4.89
2023-03-06T03:32:28.034Z,4.94
2023-03-06T03:33:27.950Z,4.85
2023-03-06T03:34:27.939Z,4.92
2023-03-06T03:35:27.959Z,4.98
2023-03-06T03:36:27.936Z,5.02
2023-03-06T03:37:27.913Z,5.06
2023-03-06T03:38:27.918Z,5.09
2023-03-06T03:39:27.913Z,5.25
2023-03-06T03:40:27.889Z,5.32
2023-03-06T03:41:27.874Z,5.34
2023-03-06T03:42:27.866Z,5.45
2023-03-06T03:43:27.953Z,5.48
2023-03-06T03:44:27.838Z,5.34
2023-03-06T03:45:27.862Z,5.49
2023-03-06T03:46:27.911Z,5.53
2023-03-06T03:47:27.818Z,5.53
2023-03-06T03:48:27.807Z,5.48
2023-03-06T03:49:27.813Z,5.41
2023-03-06T03:50:27.781Z,5.45
2023-03-06T03:51:27.774Z,5.42
2023-03-06T03:52:27.775Z,5.27
2023-03-06T03:53:27.758Z,5.20
2023-03-06T03:54:27.737Z,5.16
2023-03-06T03:55:27.748Z,5.25
2023-03-06T03:56:27.711Z,5.23
2023-03-06T03:57:27.761Z,5.20
2023-03-06T03:58:27.695Z,5.18
2023-03-06T03:59:27.695Z,5.05
2023-03-06T04:00:27.674Z,4.91
2023-03-06T04:01:27.687Z,4.88
2023-03-06T04:02:27.659Z,4.92
2023-03-06T04:03:27.640Z,4.88
2023-03-06T04:04:27.714Z,4.91
2023-03-06T04:05:27.631Z,4.88
2023-03-06T04:06:27.609Z,4.82
2023-03-06T04:07:27.604Z,4.73
2023-03-06T04:08:27.593Z,4.71
2023-03-06T04:09:27.580Z,4.73
2023-03-06T04:10:27.568Z,4.73
2023-03-06T04:11:27.559Z,4.69
2023-03-06T04:12:27.552Z,4.74
2023-03-06T04:13:27.538Z,4.77
2023-03-06T04:14:27.576Z,4.76
2023-03-06T04:15:27.521Z,4.87
2023-03-06T04:16:27.549Z,4.87
2023-03-06T04:17:27.522Z,4.79
2023-03-06T04:18:27.494Z,4.92
2023-03-06T04:19:27.481Z,4.80
2023-03-06T04:20:27.467Z,4.85
2023-03-06T04:21:27.458Z,4.92
2023-03-06T04:22:27.443Z,4.84
2023-03-06T04:23:27.432Z,4.87
2023-03-06T04:24:27.425Z,4.84
2023-03-06T04:25:27.418Z,4.77
2023-03-06T04:26:27.410Z,4.76
2023-03-06T04:27:27.396Z,4.73
2023-03-06T04:28:27.383Z,4.59
2023-03-06T04:29:27.381Z,4.66
2023-03-06T04:30:27.366Z,4.69
2023-03-06T04:31:27.506Z,4.70
2023-03-06T04:32:27.391Z,4.58
2023-03-06T04:33:27.355Z,4.69
2023-03-06T04:34:27.323Z,4.66
2023-03-06T04:35:27.360Z,4.79
2023-03-06T04:36:27.316Z,4.79
2023-03-06T04:37:27.303Z,4.74
2023-03-06T04:38:27.286Z,4.73
2023-03-06T04:39:27.282Z,4.82
2023-03-06T04:40:27.272Z,4.88
2023-03-06T04:41:27.257Z,4.91
2023-03-06T04:42:27.242Z,4.95
2023-03-06T04:43:27.234Z,5.09
2023-03-06T04:44:27.220Z,5.05
2023-03-06T04:45:27.267Z,5.21
2023-03-06T04:46:27.205Z,5.31
2023-03-06T04:47:27.192Z,5.31
2023-03-06T04:48:27.180Z,5.41
2023-03-06T04:49:27.198Z,5.24
2023-03-06T04:50:27.162Z,5.30
2023-03-06T04:51:27.151Z,5.34
2023-03-06T04:52:27.140Z,5.32
2023-03-06T04:53:27.128Z,5.25
2023-03-06T04:54:27.121Z,5.35
2023-03-06T04:55:27.111Z,5.34
2023-03-06T04:56:27.102Z,5.35
2023-03-06T04:57:27.093Z,5.30
2023-03-06T04:58:27.082Z,5.23
2023-03-06T04:59:27.066Z,5.31
2023-03-06T05:00:27.059Z,5.50
2023-03-06T05:01:27.050Z,5.42
2023-03-06T05:02:27.109Z,5.53
2023-03-06T05:03:27.027Z,5.49
2023-03-06T05:04:27.014Z,5.48
2023-03-06T05:05:27.029Z,5.53
2023-03-06T05:06:26.993Z,5.65
2023-03-06T05:07:26.988Z,5.65
2023-03-06T05:08:26.974Z,5.64
2023-03-06T05:09:26.965Z,5.59
2023-03-06T05:10:26.963Z,5.64
2023-03-06T05:11:26.941Z,5.61
2023-03-06T05:12:26.930Z,5.64
2023-03-06T05:13:26.922Z,5.69
2023-03-06T05:14:26.921Z,5.62
2023-03-06T05:15:26.904Z,5.58
2023-03-06T05:16:26.901Z,5.58
2023-03-06T05:17:26.883Z,5.65
2023-03-06T05:18:26.868Z,5.61
2023-03-06T05:19:26.856Z,5.59
2023-03-06T05:20:26.844Z,5.65
2023-03-06T05:21:26.858Z,5.61
2023-03-06T05:22:26.825Z,5.72
2023-03-06T05:23:26.820Z,5.71
2023-03-06T05:24:26.809Z,5.69
2023-03-06T05:25:26.794Z,5.67
2023-03-06T05:26:26.789Z,5.71
2023-03-06T05:27:26.774Z,5.72
2023-03-06T05:28:26.767Z,5.77
2023-03-06T05:29:26.755Z,5.76
2023-03-06T05:30:26.743Z,5.92
2023-03-06T05:31:26.809Z,5.90
2023-03-06T05:32:26.786Z,5.80
2023-03-06T05:33:26.717Z,5.83
2023-03-06T05:34:26.698Z,5.87
2023-03-06T05:35:26.748Z,5.89
2023-03-06T05:36:26.700Z,5.89
2023-03-06T05:37:26.688Z,5.77
2023-03-06T05:38:26.665Z,5.83
2023-03-06T05:39:26.655Z,5.76
2023-03-06T05:40:26.637Z,5.89
2023-03-06T05:41:26.632Z,5.83
2023-03-06T05:42:28.571Z,5.77
2023-03-06T05:43:26.614Z,5.79
2023-03-06T05:44:26.600Z,5.82
2023-03-06T05:45:26.591Z,5.83
2023-03-06T05:46:26.578Z,5.86
2023-03-06T05:47:26.572Z,5.90
2023-03-06T05:48:26.562Z,5.83
2023-03-06T05:49:26.554Z,5.92
2023-03-06T05:50:26.544Z,5.82
2023-03-06T05:51:26.547Z,6.00
2023-03-06T05:52:26.518Z,5.86
2023-03-06T05:53:26.533Z,5.92
2023-03-06T05:54:26.496Z,5.90
2023-03-06T05:55:26.486Z,6.04
2023-03-06T05:56:26.504Z,6.01
2023-03-06T05:57:26.465Z,5.94
2023-03-06T05:58:26.457Z,5.95
2023-03-06T05:59:26.446Z,6.00
2023-03-06T06:00:26.429Z,6.04
2023-03-06T06:01:26.418Z,5.92
2023-03-06T06:02:26.448Z,6.01
2023-03-06T06:03:26.491Z,6.04
2023-03-06T06:04:26.387Z,6.07
2023-03-06T06:05:26.378Z,6.04
2023-03-06T06:06:26.380Z,6.07
2023-03-06T06:07:26.361Z,6.05
2023-03-06T06:08:26.358Z,6.08
2023-03-06T06:09:26.363Z,6.13
2023-03-06T06:10:26.327Z,6.13
2023-03-06T06:11:26.316Z,6.10
2023-03-06T06:12:26.310Z,6.07
2023-03-06T06:13:26.298Z,6.11
2023-03-06T06:14:26.281Z,6.19
2023-03-06T06:15:26.273Z,6.13
2023-03-06T06:16:26.265Z,6.15
2023-03-06T06:17:26.248Z,6.18
2023-03-06T06:18:26.243Z,6.29
2023-03-06T06:19:26.235Z,6.28
2023-03-06T06:20:26.222Z,6.26
2023-03-06T06:21:26.227Z,6.25
2023-03-06T06:22:26.215Z,6.33
2023-03-06T06:23:26.188Z,6.34
2023-03-06T06:24:26.180Z,6.48
2023-03-06T06:25:26.192Z,6.44
2023-03-06T06:26:26.179Z,6.55
2023-03-06T06:27:26.150Z,6.52
2023-03-06T06:28:26.142Z,6.58
2023-03-06T06:29:26.129Z,6.56
2023-03-06T06:30:26.128Z,6.48
2023-03-06T06:31:26.166Z,6.54
2023-03-06T06:32:26.156Z,6.51
2023-03-06T06:33:26.085Z,6.54
2023-03-06T06:34:26.075Z,6.54
2023-03-06T06:35:26.121Z,6.47
2023-03-06T06:36:26.059Z,6.54
2023-03-06T06:37:26.046Z,6.47
2023-03-06T06:38:26.030Z,6.59
2023-03-06T06:39:26.024Z,6.72
2023-03-06T06:40:26.015Z,6.46
2023-03-06T06:42:33.275Z,6.55
2023-03-06T06:43:27.004Z,6.62
2023-03-06T06:44:25.969Z,6.56
2023-03-06T06:45:25.962Z,6.64
2023-03-06T06:47:14.301Z,6.66
2023-03-06T06:47:27.049Z,6.61
2023-03-06T06:48:25.927Z,6.62
2023-03-06T06:49:25.918Z,6.62
2023-03-06T06:50:25.906Z,6.64
2023-03-06T06:51:25.898Z,6.62
2023-03-06T06:52:25.894Z,6.59
2023-03-06T06:53:27.429Z,6.58
2023-03-06T06:54:25.891Z,6.61
2023-03-06T06:55:25.854Z,6.72
2023-03-06T06:56:25.843Z,6.74
2023-03-06T06:57:25.865Z,6.74
2023-03-06T06:58:25.826Z,6.70
2023-03-06T06:59:25.821Z,6.69
2023-03-06T07:00:25.804Z,6.64
2023-03-06T07:01:25.805Z,6.59
2023-03-06T07:02:25.787Z,6.61
2023-03-06T07:03:25.772Z,6.64
2023-03-06T07:04:25.760Z,6.59
2023-03-06T07:05:25.752Z,6.65
2023-03-06T07:06:25.745Z,6.66
2023-03-06T07:07:26.620Z,6.62
2023-03-06T07:08:25.722Z,6.73
2023-03-06T07:09:25.711Z,6.73
2023-03-06T07:10:25.700Z,6.88
2023-03-06T07:11:25.695Z,6.82
2023-03-06T07:12:25.726Z,6.79
2023-03-06T07:13:25.697Z,6.79
2023-03-06T07:14:25.656Z,6.77
2023-03-06T07:15:25.644Z,6.77
2023-03-06T07:16:25.632Z,6.82
2023-03-06T07:17:25.629Z,6.88
2023-03-06T07:18:25.617Z,6.80
2023-03-06T07:19:25.601Z,6.96
2023-03-06T07:20:25.595Z,6.87
2023-03-06T07:21:25.584Z,6.99
2023-03-06T07:22:25.575Z,7.02
2023-03-06T07:23:25.560Z,7.14
2023-03-06T07:24:25.555Z,7.32
2023-03-06T07:25:25.539Z,7.35
2023-03-06T07:26:25.532Z,7.35
2023-03-06T07:27:25.557Z,7.32
2023-03-06T07:28:25.508Z,7.36
2023-03-06T07:29:25.533Z,7.36
2023-03-06T07:30:25.494Z,7.35
2023-03-06T07:31:25.581Z,7.31
2023-03-06T07:32:25.638Z,7.46
2023-03-06T07:33:25.463Z,7.52
2023-03-06T07:34:25.458Z,7.52
2023-03-06T07:35:25.451Z,7.67
2023-03-06T07:36:25.428Z,7.65
2023-03-06T07:37:25.415Z,7.65
2023-03-06T07:38:25.414Z,7.62
2023-03-06T07:39:25.400Z,7.75
2023-03-06T07:40:25.388Z,7.60
2023-03-06T07:41:25.390Z,7.57
2023-03-06T07:42:25.368Z,7.52
2023-03-06T07:43:25.356Z,7.56
2023-03-06T07:44:25.355Z,7.56
2023-03-06T07:45:25.377Z,7.52
2023-03-06T07:46:25.396Z,7.57
2023-03-06T07:47:25.320Z,7.54
2023-03-06T07:48:25.309Z,7.62
2023-03-06T07:49:25.314Z,7.53
2023-03-06T07:50:25.317Z,7.72
2023-03-06T07:51:25.292Z,7.68
2023-03-06T07:52:25.267Z,7.72
2023-03-06T07:53:25.265Z,7.59
2023-03-06T07:54:25.246Z,7.68
2023-03-06T07:55:25.235Z,7.79
2023-03-06T07:56:25.244Z,7.72
2023-03-06T07:57:25.215Z,7.87
2023-03-06T07:58:25.210Z,7.87
2023-03-06T07:59:25.198Z,7.90
2023-03-06T08:00:25.189Z,7.89
2023-03-06T08:01:25.232Z,7.95
2023-03-06T08:02:25.171Z,7.87
2023-03-06T08:03:25.170Z,7.86
2023-03-06T08:04:25.148Z,7.97
2023-03-06T08:05:25.143Z,8.07
2023-03-06T08:06:25.128Z,8.08
2023-03-06T08:07:25.118Z,8.12
2023-03-06T08:08:25.109Z,8.15
2023-03-06T08:09:25.096Z,8.19
2023-03-06T08:10:25.081Z,8.23
2023-03-06T08:11:25.075Z,8.20
2023-03-06T08:12:25.058Z,8.29
2023-03-06T08:13:25.149Z,8.32
2023-03-06T08:14:25.042Z,8.28
2023-03-06T08:15:25.027Z,8.41
2023-03-06T08:16:25.102Z,8.41
2023-03-06T08:17:25.026Z,8.41
2023-03-06T08:18:24.991Z,8.44
2023-03-06T08:19:24.986Z,8.51
2023-03-06T08:20:25.052Z,8.62
2023-03-06T08:21:24.963Z,8.69
2023-03-06T08:22:24.961Z,8.77
2023-03-06T08:23:24.942Z,8.75
2023-03-06T08:24:24.929Z,9.00
2023-03-06T08:25:24.928Z,8.98
2023-03-06T08:26:24.934Z,9.15
2023-03-06T08:27:24.894Z,9.06
2023-03-06T08:28:24.886Z,9.10
2023-03-06T08:29:24.878Z,9.09
2023-03-06T08:30:24.936Z,9.07
2023-03-06T08:31:24.856Z,9.05
2023-03-06T08:32:24.891Z,8.96
2023-03-06T08:33:24.864Z,8.88
2023-03-06T08:34:24.819Z,8.99
2023-03-06T08:35:24.938Z,9.14
2023-03-06T08:36:24.830Z,9.00
2023-03-06T08:37:24.927Z,9.05
2023-03-06T08:38:24.793Z,8.98
2023-03-06T08:39:24.767Z,9.10
2023-03-06T08:40:24.804Z,9.18
2023-03-06T08:41:24.747Z,9.21
2023-03-06T08:42:24.746Z,9.10
2023-03-06T08:43:24.727Z,8.99
2023-03-06T08:44:24.717Z,9.05
2023-03-06T08:45:24.758Z,9.10
2023-03-06T08:46:24.693Z,9.14
2023-03-06T08:47:24.713Z,9.14
2023-03-06T08:48:24.686Z,9.13
2023-03-06T08:49:24.690Z,9.02
2023-03-06T08:50:24.676Z,9.02
2023-03-06T08:51:24.648Z,9.05
2023-03-06T08:52:24.631Z,9.02
2023-03-06T08:53:40.369Z,8.99
2023-03-06T08:54:25.632Z,8.91
2023-03-06T08:55:24.597Z,8.84
2023-03-06T08:56:24.599Z,8.82
2023-03-06T08:57:24.581Z,8.91
2023-03-06T08:58:24.567Z,8.84
2023-03-06T08:59:24.733Z,8.88
2023-03-06T09:00:24.712Z,8.85
2023-03-06T09:01:24.639Z,8.75
2023-03-06T09:02:24.603Z,8.88
2023-03-06T09:03:24.518Z,8.85
2023-03-06T09:04:24.506Z,8.98
2023-03-06T09:05:24.524Z,8.95
2023-03-06T09:06:24.481Z,8.95
2023-03-06T09:07:24.483Z,8.98
2023-03-06T09:08:24.462Z,8.85
2023-03-06T09:09:24.454Z,8.72
2023-03-06T09:10:24.582Z,8.55
2023-03-06T09:11:24.448Z,8.45
2023-03-06T09:12:24.419Z,8.42
2023-03-06T09:13:24.409Z,8.55
2023-03-06T09:14:24.398Z,8.59
2023-03-06T09:15:24.389Z,8.73
2023-03-06T09:16:24.481Z,8.73
2023-03-06T09:17:24.393Z,8.72
2023-03-06T09:18:24.359Z,8.72
2023-03-06T09:19:24.500Z,8.93
2023-03-06T09:20:24.397Z,8.96
2023-03-06T09:21:24.356Z,9.10
2023-03-06T09:22:24.316Z,9.13
2023-03-06T09:23:24.308Z,9.20
2023-03-06T09:24:24.310Z,9.33
2023-03-06T09:25:24.287Z,9.31
2023-03-06T09:26:32.748Z,9.41
2023-03-06T09:27:25.290Z,9.39
2023-03-06T09:28:24.256Z,9.38
2023-03-06T09:29:24.247Z,9.33
2023-03-06T09:30:24.238Z,9.35
2023-03-06T09:31:24.229Z,9.42
2023-03-06T09:32:24.237Z,9.39
2023-03-06T09:33:24.202Z,9.43
2023-03-06T09:34:24.201Z,9.43
2023-03-06T09:35:24.225Z,9.54
2023-03-06T09:36:24.176Z,9.58
2023-03-06T09:37:24.216Z,9.74
2023-03-06T09:38:24.162Z,9.79
2023-03-06T09:39:24.146Z,9.94
2023-03-06T09:40:24.131Z,9.94
2023-03-06T09:41:24.122Z,9.95
2023-03-06T09:42:24.115Z,10.01
2023-03-06T09:43:24.102Z,9.98
2023-03-06T09:44:24.087Z,10.02
2023-03-06T09:45:24.078Z,10.02
2023-03-06T09:46:24.309Z,10.02
2023-03-06T09:47:24.069Z,10.09
2023-03-06T09:48:24.050Z,10.37
2023-03-06T09:49:24.040Z,10.38
2023-03-06T09:50:24.053Z,10.67
2023-03-06T09:51:24.013Z,10.69
2023-03-06T09:52:24.004Z,10.92
2023-03-06T09:53:24.020Z,10.96
2023-03-06T09:54:23.980Z,11.11
2023-03-06T09:55:23.973Z,11.07
2023-03-06T09:56:23.965Z,11.22
2023-03-06T09:57:23.954Z,11.41
2023-03-06T09:58:23.939Z,11.44
2023-03-06T09:59:23.930Z,11.58
2023-03-06T10:00:23.923Z,11.71
2023-03-06T10:01:23.917Z,11.61
2023-03-06T10:02:23.983Z,11.74
2023-03-06T10:03:23.964Z,11.80
2023-03-06T10:04:23.878Z,11.54
2023-03-06T10:05:23.868Z,11.51
2023-03-06T10:06:23.864Z,11.61
2023-03-06T10:07:23.858Z,11.46
2023-03-06T10:08:23.832Z,11.03
2023-03-06T10:09:23.853Z,10.69
2023-03-06T10:10:23.812Z,10.40
2023-03-06T10:11:23.800Z,10.02
2023-03-06T10:12:24.871Z,9.97
2023-03-06T10:13:23.780Z,9.85
2023-03-06T10:14:23.764Z,9.74
2023-03-06T10:15:23.758Z,9.76
2023-03-06T10:16:23.784Z,9.74
2023-03-06T10:17:23.785Z,9.57
2023-03-06T10:18:23.728Z,9.42
2023-03-06T10:19:23.715Z,9.41
2023-03-06T10:20:23.710Z,9.43
2023-03-06T10:21:23.716Z,9.36
2023-03-06T10:22:23.695Z,9.42
2023-03-06T10:23:23.686Z,9.51
2023-03-06T10:24:23.672Z,9.68
2023-03-06T10:25:23.680Z,9.63
2023-03-06T10:26:23.743Z,9.60
2023-03-06T10:27:23.640Z,9.60
2023-03-06T10:28:23.626Z,9.71
2023-03-06T10:29:23.615Z,9.98
2023-03-06T10:30:23.608Z,10.26
2023-03-06T10:31:23.679Z,10.28
2023-03-06T10:32:23.637Z,10.59
2023-03-06T10:33:23.572Z,10.74
2023-03-06T10:34:23.566Z,11.02
2023-03-06T10:35:23.614Z,10.99
2023-03-06T10:36:23.546Z,11.00
2023-03-06T10:37:23.539Z,11.18
2023-03-06T10:38:23.520Z,11.35
2023-03-06T10:39:23.513Z,11.29
2023-03-06T10:40:23.557Z,11.22
2023-03-06T10:41:23.527Z,11.22
2023-03-06T10:42:23.476Z,11.00
2023-03-06T10:43:23.469Z,11.02
2023-03-06T10:44:23.490Z,10.78
2023-03-06T10:45:23.451Z,10.76
2023-03-06T10:46:23.474Z,10.77
2023-03-06T10:47:23.439Z,10.76
2023-03-06T10:48:23.424Z,10.86
2023-03-06T10:49:23.407Z,10.91
2023-03-06T10:50:23.413Z,11.07
2023-03-06T10:51:23.386Z,11.38
2023-03-06T10:52:23.375Z,11.44
2023-03-06T10:53:23.367Z,11.44
2023-03-06T10:54:23.362Z,11.50
2023-03-06T10:55:23.341Z,11.54
2023-03-06T10:56:23.333Z,11.71
2023-03-06T10:57:23.341Z,11.69
2023-03-06T10:58:23.305Z,11.61
2023-03-06T10:59:23.294Z,11.62
2023-03-06T11:00:23.295Z,11.71
2023-03-06T11:01:23.322Z,11.10
2023-03-06T11:02:23.267Z,10.92
2023-03-06T11:03:23.278Z,10.82
2023-03-06T11:04:23.454Z,11.07
2023-03-06T11:05:23.232Z,11.25
2023-03-06T11:06:23.219Z,11.44
2023-03-06T11:07:23.214Z,11.63
2023-03-06T11:08:23.216Z,11.90
2023-03-06T11:09:23.196Z,12.29
2023-03-06T11:10:23.182Z,12.49
2023-03-06T11:11:36.694Z,12.59
2023-03-06T11:12:23.165Z,12.34
2023-03-06T11:13:23.177Z,12.69
2023-03-06T11:14:23.243Z,13.22
2023-03-06T11:15:23.142Z,14.04
2023-03-06T11:16:25.602Z,14.83
2023-03-06T11:17:23.108Z,15.26
2023-03-06T11:18:23.095Z,15.73
2023-03-06T11:19:23.088Z,16.13
2023-03-06T11:20:23.091Z,16.55
2023-03-06T11:21:23.064Z,16.81
2023-03-06T11:22:23.059Z,17.26
2023-03-06T11:23:23.055Z,17.41
2023-03-06T11:24:23.060Z,17.27
2023-03-06T11:25:23.021Z,17.16
2023-03-06T11:26:23.020Z,17.42
2023-03-06T11:27:23.006Z,17.35
2023-03-06T11:28:22.985Z,17.35
2023-03-06T11:29:23.100Z,16.31
2023-03-06T11:30:22.983Z,15.95
2023-03-06T11:31:23.020Z,15.48
2023-03-06T11:32:22.971Z,15.87
2023-03-06T11:33:22.941Z,16.13
2023-03-06T11:34:22.928Z,14.40
2023-03-06T11:35:23.000Z,13.73
2023-03-06T11:36:22.915Z,13.69
2023-03-06T11:37:22.898Z,14.43
2023-03-06T11:38:22.887Z,15.39
2023-03-06T11:39:22.892Z,15.06
2023-03-06T11:40:22.864Z,15.77
2023-03-06T11:41:22.863Z,16.23
2023-03-06T11:42:22.856Z,16.37
2023-03-06T11:43:22.832Z,16.94
2023-03-06T11:44:22.833Z,17.46
2023-03-06T11:45:22.844Z,18.09
2023-03-06T11:46:22.988Z,18.49
2023-03-06T11:48:37.899Z,18.88
2023-03-06T11:48:39.320Z,19.23
2023-03-06T11:49:39.307Z,19.29
2023-03-06T11:50:39.301Z,19.29
2023-03-06T11:51:39.284Z,18.99
2023-03-06T11:52:39.274Z,18.60
2023-03-06T11:53:39.287Z,18.34
2023-03-06T12:00:00.636Z,18.49
2023-03-06T12:00:02.064Z,16.28
2023-03-06T12:01:02.058Z,16.63
2023-03-06T12:02:02.072Z,16.85
2023-03-06T12:03:02.018Z,17.04
2023-03-06T12:14:02.450Z,17.11
2023-03-06T12:14:05.483Z,19.35
2023-03-06T12:16:43.405Z,19.17
2023-03-06T12:16:44.896Z,19.40
2023-03-06T12:26:05.248Z,19.44
2023-03-06T12:26:06.629Z,20.07
2023-03-06T12:27:06.619Z,19.91
2023-03-06T12:28:06.615Z,19.62
2023-03-06T12:29:06.613Z,19.21
2023-03-06T12:30:06.587Z,18.04
2023-03-06T12:31:06.580Z,17.30
2023-03-06T12:32:06.778Z,16.78
2023-03-06T12:33:06.563Z,16.55
2023-03-06T12:34:06.558Z,16.19
2023-03-06T12:35:06.540Z,15.73
2023-03-06T12:36:06.529Z,15.39
2023-03-06T12:37:06.571Z,15.26
2023-03-06T12:38:06.514Z,15.18
2023-03-06T12:39:06.510Z,15.08
2023-03-06T12:40:06.490Z,15.18
2023-03-06T12:41:06.490Z,15.18
2023-03-06T12:42:11.323Z,15.03
2023-03-06T12:43:06.465Z,15.26
2023-03-06T13:05:24.969Z,15.50
2023-03-06T13:05:26.398Z,20.17
2023-03-06T13:10:39.212Z,20.21
2023-03-06T13:10:40.633Z,20.39
2023-03-06T13:11:40.627Z,19.68
2023-03-06T13:12:40.636Z,19.04
2023-03-06T13:24:44.854Z,18.67
2023-03-06T13:24:46.267Z,19.54
2023-03-06T13:25:46.321Z,19.70
2023-03-06T13:26:46.273Z,19.63
2023-03-06T13:27:46.238Z,19.13
2023-03-06T13:28:46.291Z,18.38
2023-03-06T13:29:46.216Z,17.69
2023-03-06T13:30:46.287Z,17.02
2023-03-06T13:34:41.872Z,16.83
2023-03-06T13:34:43.304Z,17.41
2023-03-06T13:35:43.310Z,17.69
2023-03-06T13:36:43.255Z,17.57
2023-03-06T13:37:43.239Z,17.51
2023-03-06T13:38:43.247Z,17.01
2023-03-06T13:39:43.220Z,16.50
2023-03-06T13:40:43.360Z,16.50
2023-03-06T13:41:43.229Z,16.34
2023-03-06T13:47:05.672Z,16.28
2023-03-06T13:47:07.062Z,17.79
2023-03-06T13:48:30.334Z,18.02
2023-03-06T13:49:08.075Z,17.59
2023-03-06T13:50:07.033Z,17.20
2023-03-06T13:51:07.023Z,16.88
2023-03-06T13:52:07.012Z,16.34
2023-03-06T13:53:07.000Z,15.91
2023-03-06T13:54:07.028Z,15.77
2023-03-06T13:55:06.990Z,15.73
2023-03-06T14:00:54.271Z,15.90
2023-03-06T14:00:55.713Z,18.48
2023-03-06T14:02:41.753Z,18.46
2023-03-06T14:02:55.807Z,18.80
2023-03-06T14:03:55.677Z,18.90
2023-03-06T14:11:09.575Z,18.70
2023-03-06T14:11:10.964Z,19.15
2023-03-06T14:12:10.954Z,18.85
2023-03-06T14:17:36.760Z,18.15
2023-03-06T14:17:38.190Z,17.81
2023-03-06T14:18:38.176Z,17.78
2023-03-06T14:21:24.047Z,17.84
2023-03-06T14:21:25.506Z,18.40
2023-03-06T14:22:25.475Z,18.71
2023-03-06T14:36:29.271Z,19.08
2023-03-06T14:36:30.683Z,18.88
2023-03-06T14:37:30.669Z,18.95
2023-03-06T14:43:04.819Z,18.99
2023-03-06T14:43:06.231Z,18.80